Phoenix, Arizona
Current Conditions -  °F | °C
As of 6:51 PM on Thursday 18 Dec 2014 (Local Time) from KPHX Reporting Station
Clear Clear  
Wind Chill: 14°   Ceiling: Unl
Heat Index: 14°   Visibility: 10mi
Dew Point:   Wind: 7mph
Humidity: 59%   Direction: 260°W
Pressure: 30.12"   Gusts: NA
Location:  33.45°N, 112.08°W
Report Text: KPHX 190151Z 26006KT 10SM CLR 14/06 A3012 RMK AO2 SLP194 T01390061
Loading
Personal Weather Stations






























Interactive Weather Map New forecast layout! Learn more

10-Day Weather Forecast

Advertisements
Track Severe Weather on mobile